createdAt,value
2022-08-17T00:00:05.660Z,60.70
2022-08-17T00:03:07.160Z,60.70
2022-08-17T00:05:41.960Z,61.40
2022-08-17T00:08:11.955Z,60.70
2022-08-17T00:10:40.802Z,60.60
2022-08-17T00:13:10.661Z,60.60
2022-08-17T00:15:37.926Z,61.60
2022-08-17T00:19:00.979Z,61.40
2022-08-17T00:20:54.746Z,60.50
2022-08-17T00:23:23.181Z,61.30
2022-08-17T00:25:50.591Z,61.50
2022-08-17T00:28:19.491Z,60.50
2022-08-17T00:30:51.208Z,60.50
2022-08-17T00:33:27.217Z,61.50
2022-08-17T00:35:55.798Z,61.50
2022-08-17T00:38:24.023Z,60.50
2022-08-17T00:40:55.953Z,61.30
2022-08-17T00:43:42.396Z,61.40
2022-08-17T00:46:13.637Z,62.10
2022-08-17T00:48:41.973Z,60.50
2022-08-17T00:51:23.275Z,60.50
2022-08-17T00:53:56.291Z,61.30
2022-08-17T00:56:33.079Z,61.40
2022-08-17T00:59:02.262Z,60.60
2022-08-17T01:01:30.179Z,61.50
2022-08-17T01:03:59.868Z,61.50
2022-08-17T01:06:29.149Z,60.70
2022-08-17T01:08:58.087Z,60.50
2022-08-17T01:11:25.681Z,60.60
2022-08-17T01:13:52.588Z,60.60
2022-08-17T01:16:24.494Z,62.80
2022-08-17T01:18:54.859Z,61.50
2022-08-17T01:21:43.830Z,60.60
2022-08-17T01:24:10.736Z,61.40
2022-08-17T01:26:40.648Z,60.70
2022-08-17T01:29:07.944Z,62.10
2022-08-17T01:31:42.437Z,60.60
2022-08-17T01:34:11.519Z,60.60
2022-08-17T01:36:41.544Z,60.60
2022-08-17T01:39:16.063Z,60.70
2022-08-17T01:41:46.072Z,60.70
2022-08-17T01:44:15.739Z,61.60
2022-08-17T01:46:42.692Z,60.70
2022-08-17T01:49:11.703Z,60.70
2022-08-17T01:51:39.434Z,60.70
2022-08-17T01:54:14.820Z,60.60
2022-08-17T01:56:47.079Z,60.70
2022-08-17T01:59:16.286Z,60.70
2022-08-17T02:01:44.125Z,61.70
2022-08-17T02:04:11.871Z,60.70
2022-08-17T02:06:52.930Z,60.70
2022-08-17T02:09:25.940Z,60.70
2022-08-17T02:11:56.318Z,61.60
2022-08-17T02:14:24.701Z,61.50
2022-08-17T02:16:51.835Z,61.50
2022-08-17T02:19:19.456Z,59.00
2022-08-17T02:21:50.822Z,60.80
2022-08-17T02:24:58.356Z,62.30
2022-08-17T02:27:15.755Z,61.80
2022-08-17T02:29:42.573Z,62.20
2022-08-17T02:32:28.216Z,61.00
2022-08-17T02:34:59.160Z,61.90
2022-08-17T02:37:27.740Z,62.00
2022-08-17T02:39:56.813Z,62.10
2022-08-17T02:42:33.804Z,62.10
2022-08-17T02:45:01.703Z,62.00
2022-08-17T02:47:28.633Z,61.60
2022-08-17T02:49:56.179Z,61.30
2022-08-17T02:52:43.492Z,61.30
2022-08-17T02:55:17.903Z,62.10
2022-08-17T02:57:45.643Z,62.10
2022-08-17T03:00:19.466Z,61.30
2022-08-17T03:02:48.646Z,62.10
2022-08-17T03:05:18.245Z,61.40
2022-08-17T03:07:45.411Z,62.70
2022-08-17T03:10:12.903Z,61.50
2022-08-17T03:12:42.179Z,62.20
2022-08-17T03:15:21.657Z,62.20
2022-08-17T03:17:52.310Z,63.10
2022-08-17T03:20:20.498Z,62.40
2022-08-17T03:22:53.276Z,62.40
2022-08-17T03:25:32.788Z,62.40
2022-08-17T03:28:03.128Z,62.40
2022-08-17T03:30:30.323Z,62.50
2022-08-17T03:33:00.025Z,62.90
2022-08-17T03:35:30.224Z,61.70
2022-08-17T03:38:00.725Z,62.70
2022-08-17T03:40:55.482Z,62.50
2022-08-17T03:43:18.416Z,62.70
2022-08-17T03:46:29.010Z,62.60
2022-08-17T03:49:26.219Z,62.60
2022-08-17T03:52:13.136Z,62.60
2022-08-17T03:54:59.799Z,62.70
2022-08-17T03:57:27.526Z,62.70
2022-08-17T03:59:55.267Z,63.00
2022-08-17T04:02:29.906Z,62.70
2022-08-17T04:04:57.484Z,62.70
2022-08-17T04:07:27.428Z,61.90
2022-08-17T04:09:54.334Z,62.90
2022-08-17T04:12:23.951Z,64.00
2022-08-17T04:14:53.562Z,63.30
2022-08-17T04:17:27.121Z,62.00
2022-08-17T04:19:55.902Z,62.90
2022-08-17T04:22:30.424Z,62.80
2022-08-17T04:25:15.586Z,63.40
2022-08-17T04:27:43.578Z,62.80
2022-08-17T04:30:12.409Z,62.00
2022-08-17T04:33:05.746Z,63.00
2022-08-17T04:35:55.638Z,62.00
2022-08-17T04:38:28.338Z,63.20
2022-08-17T04:41:15.516Z,62.70
2022-08-17T04:43:44.784Z,62.80
2022-08-17T04:46:14.585Z,62.00
2022-08-17T04:48:50.195Z,62.80
2022-08-17T04:51:54.442Z,64.20
2022-08-17T04:54:22.242Z,62.90
2022-08-17T04:56:49.263Z,63.10
2022-08-17T04:59:21.295Z,63.30
2022-08-17T05:01:50.722Z,62.10
2022-08-17T05:04:34.263Z,62.90
2022-08-17T05:07:03.111Z,62.90
2022-08-17T05:09:29.887Z,62.10
2022-08-17T05:12:02.129Z,62.10
2022-08-17T05:14:33.182Z,63.60
2022-08-17T05:17:01.397Z,62.20
2022-08-17T05:19:28.903Z,62.10
2022-08-17T05:21:55.878Z,62.10
2022-08-17T05:24:42.467Z,63.30
2022-08-17T05:27:09.557Z,62.10
2022-08-17T05:29:44.702Z,63.40
2022-08-17T05:32:38.089Z,61.90
2022-08-17T05:35:00.725Z,62.20
2022-08-17T05:37:27.799Z,63.30
2022-08-17T05:39:54.771Z,62.30
2022-08-17T05:42:22.214Z,65.50
2022-08-17T05:44:48.943Z,63.30
2022-08-17T05:47:16.245Z,62.40
2022-08-17T05:49:43.047Z,63.30
2022-08-17T05:52:31.562Z,62.70
2022-08-17T05:55:17.694Z,63.40
2022-08-17T05:58:16.762Z,63.40
2022-08-17T06:01:07.700Z,63.60
2022-08-17T06:03:53.766Z,63.70
2022-08-17T06:06:35.143Z,63.80
2022-08-17T06:09:47.237Z,64.00
2022-08-17T06:12:29.043Z,63.00
2022-08-17T06:15:19.410Z,63.70
2022-08-17T06:17:46.672Z,63.70
2022-08-17T06:20:15.995Z,63.00
2022-08-17T06:22:49.349Z,63.00
2022-08-17T06:25:39.394Z,62.90
2022-08-17T06:28:13.969Z,63.00
2022-08-17T06:31:00.303Z,63.00
2022-08-17T06:33:35.096Z,64.00
2022-08-17T06:36:16.115Z,64.20
2022-08-17T06:39:09.189Z,63.90
2022-08-17T06:42:09.524Z,64.00
2022-08-17T06:45:20.041Z,63.90
2022-08-17T06:48:18.764Z,65.40
2022-08-17T06:50:54.454Z,64.30
2022-08-17T06:53:36.134Z,64.80
2022-08-17T06:56:12.837Z,65.30
2022-08-17T06:58:44.071Z,65.10
2022-08-17T07:01:16.634Z,65.10
2022-08-17T07:03:57.195Z,65.10
2022-08-17T07:06:29.333Z,65.20
2022-08-17T07:09:02.380Z,65.30
2022-08-17T07:11:43.447Z,66.10
2022-08-17T07:14:25.275Z,66.20
2022-08-17T07:16:54.834Z,66.50
2022-08-17T07:19:25.261Z,65.40
2022-08-17T07:21:56.056Z,65.40
2022-08-17T07:24:51.436Z,66.50
2022-08-17T07:27:25.045Z,65.50
2022-08-17T07:29:57.659Z,65.50
2022-08-17T07:32:31.735Z,66.30
2022-08-17T07:35:13.045Z,66.20
2022-08-17T07:37:53.190Z,66.40
2022-08-17T07:40:27.080Z,66.10
2022-08-17T07:43:09.233Z,66.20
2022-08-17T07:46:18.183Z,66.00
2022-08-17T07:48:52.175Z,65.10
2022-08-17T07:51:27.845Z,65.10
2022-08-17T07:54:13.451Z,65.00
2022-08-17T07:56:41.099Z,65.70
2022-08-17T07:59:23.935Z,65.10
2022-08-17T08:01:57.994Z,67.40
2022-08-17T08:05:06.499Z,65.90
2022-08-17T08:07:58.132Z,65.70
2022-08-17T08:10:42.811Z,64.80
2022-08-17T08:13:21.995Z,64.80
2022-08-17T08:15:52.971Z,65.80
2022-08-17T08:18:54.818Z,65.60
2022-08-17T08:21:48.465Z,65.60
2022-08-17T08:24:41.020Z,66.30
2022-08-17T08:27:27.122Z,65.40
2022-08-17T08:30:08.005Z,65.30
2022-08-17T08:32:50.216Z,65.60
2022-08-17T08:35:33.696Z,65.40
2022-08-17T08:38:37.975Z,65.30
2022-08-17T08:41:23.348Z,65.30
2022-08-17T08:43:53.426Z,66.10
2022-08-17T08:46:59.914Z,64.50
2022-08-17T08:50:05.591Z,65.20
2022-08-17T08:52:58.703Z,65.20
2022-08-17T08:55:47.403Z,65.10
2022-08-17T08:58:51.800Z,65.20
2022-08-17T09:01:38.020Z,65.20
2022-08-17T09:05:10.557Z,65.30
2022-08-17T09:07:38.304Z,65.10
2022-08-17T09:10:25.931Z,64.40
2022-08-17T09:12:59.607Z,65.30
2022-08-17T09:15:33.656Z,65.40
2022-08-17T09:18:59.291Z,65.30
2022-08-17T09:21:05.864Z,65.10
2022-08-17T09:23:38.854Z,65.20
2022-08-17T09:26:25.500Z,64.50
2022-08-17T09:28:55.876Z,65.40
2022-08-17T09:31:33.221Z,65.30
2022-08-17T09:34:05.355Z,65.40
2022-08-17T09:36:40.530Z,65.40
2022-08-17T09:39:19.991Z,65.50
2022-08-17T09:42:00.481Z,65.50
2022-08-17T09:44:39.586Z,65.40
2022-08-17T09:47:32.528Z,65.20
2022-08-17T09:51:04.094Z,65.10
2022-08-17T09:53:09.314Z,65.30
2022-08-17T09:56:14.730Z,65.60
2022-08-17T09:59:00.546Z,65.20
2022-08-17T10:01:48.594Z,65.70
2022-08-17T10:04:33.698Z,65.20
2022-08-17T10:07:26.025Z,63.80
2022-08-17T10:10:14.538Z,65.20
2022-08-17T10:13:05.114Z,65.20
2022-08-17T10:15:42.494Z,65.20
2022-08-17T10:18:33.104Z,65.40
2022-08-17T10:21:33.376Z,64.50
2022-08-17T10:24:40.536Z,65.30
2022-08-17T10:27:52.326Z,66.10
2022-08-17T10:30:24.589Z,65.30
2022-08-17T10:33:05.791Z,65.30
2022-08-17T10:35:36.326Z,65.50
2022-08-17T10:38:15.328Z,65.60
2022-08-17T10:40:51.626Z,64.70
2022-08-17T10:44:38.631Z,65.40
2022-08-17T10:46:52.011Z,65.40
2022-08-17T10:49:18.821Z,65.40
2022-08-17T10:51:48.916Z,64.60
2022-08-17T10:54:24.513Z,65.50
2022-08-17T10:56:54.172Z,65.70
2022-08-17T10:59:44.156Z,65.50
2022-08-17T11:02:19.791Z,65.20
2022-08-17T11:05:08.256Z,65.30
2022-08-17T11:07:59.736Z,65.40
2022-08-17T11:11:04.416Z,65.40
2022-08-17T11:13:46.375Z,64.60
2022-08-17T11:16:59.302Z,65.40
2022-08-17T11:19:32.162Z,65.40
2022-08-17T11:22:33.320Z,65.80
2022-08-17T11:25:15.729Z,65.40
2022-08-17T11:27:44.180Z,65.60
2022-08-17T11:30:15.397Z,65.40
2022-08-17T11:32:54.491Z,65.60
2022-08-17T11:35:21.897Z,65.60
2022-08-17T11:38:15.854Z,65.40
2022-08-17T11:41:13.928Z,65.50
2022-08-17T11:43:49.615Z,65.50
2022-08-17T11:47:17.968Z,65.50
2022-08-17T11:50:35.643Z,65.50
2022-08-17T11:53:03.294Z,65.40
2022-08-17T11:55:37.535Z,65.00
2022-08-17T11:58:26.307Z,65.60
2022-08-17T12:00:57.104Z,64.70
2022-08-17T12:06:24.018Z,64.70
2022-08-17T12:11:55.101Z,64.70
2022-08-17T12:15:05.904Z,64.70
2022-08-17T12:17:39.298Z,65.70
2022-08-17T12:20:24.023Z,68.10
2022-08-17T12:23:19.401Z,64.70
2022-08-17T12:26:07.745Z,65.40
2022-08-17T12:28:39.051Z,65.40
2022-08-17T12:31:34.316Z,65.60
2022-08-17T12:34:04.387Z,65.40
2022-08-17T12:36:33.102Z,65.50
2022-08-17T12:39:14.387Z,65.40
2022-08-17T12:41:47.904Z,65.40
2022-08-17T12:44:34.015Z,65.30
2022-08-17T12:47:19.373Z,65.30
2022-08-17T12:49:51.327Z,65.30
2022-08-17T12:52:30.719Z,65.40
2022-08-17T12:55:06.169Z,65.40
2022-08-17T12:57:40.964Z,65.30
2022-08-17T13:00:17.569Z,66.20
2022-08-17T13:02:48.531Z,65.50
2022-08-17T13:05:23.888Z,65.30
2022-08-17T13:07:53.432Z,65.50
2022-08-17T13:10:28.630Z,65.60
2022-08-17T13:13:03.694Z,65.00
2022-08-17T13:15:44.693Z,65.50
2022-08-17T13:18:36.490Z,65.70
2022-08-17T13:21:05.079Z,65.80
2022-08-17T13:23:32.759Z,66.00
2022-08-17T13:26:06.119Z,65.30
2022-08-17T13:28:36.337Z,66.30
2022-08-17T13:31:44.040Z,66.70
2022-08-17T13:34:34.569Z,66.30
2022-08-17T13:37:32.341Z,66.20
2022-08-17T13:40:11.232Z,66.50
2022-08-17T13:42:54.133Z,65.30
2022-08-17T13:45:36.605Z,66.30
2022-08-17T13:48:27.968Z,65.30
2022-08-17T13:50:54.703Z,67.10
2022-08-17T13:53:50.461Z,66.30
2022-08-17T13:56:39.583Z,66.00
2022-08-17T13:59:13.615Z,66.20
2022-08-17T14:01:53.483Z,66.00
2022-08-17T14:04:24.379Z,65.10
2022-08-17T14:07:01.721Z,65.90
2022-08-17T14:09:37.157Z,65.00
2022-08-17T14:12:10.547Z,65.90
2022-08-17T14:14:38.316Z,65.70
2022-08-17T14:17:05.509Z,65.60
2022-08-17T14:19:34.924Z,65.60
2022-08-17T14:22:02.808Z,65.60
2022-08-17T14:24:39.994Z,66.40
2022-08-17T14:27:09.849Z,65.00
2022-08-17T14:32:14.263Z,64.20
2022-08-17T14:34:41.067Z,64.00
2022-08-17T14:37:08.348Z,64.00
2022-08-17T14:39:35.163Z,64.80
2022-08-17T14:42:02.097Z,64.90
2022-08-17T14:44:29.900Z,63.90
2022-08-17T14:46:56.654Z,64.80
2022-08-17T14:49:25.840Z,64.70
2022-08-17T14:51:53.871Z,64.50
2022-08-17T14:54:34.145Z,63.50
2022-08-17T14:57:22.507Z,63.40
2022-08-17T14:59:54.429Z,63.30
2022-08-17T15:02:29.866Z,64.20
2022-08-17T15:05:02.538Z,64.10
2022-08-17T15:07:31.398Z,64.00
2022-08-17T15:10:01.351Z,64.30
2022-08-17T15:12:33.248Z,64.20
2022-08-17T15:15:04.502Z,63.90
2022-08-17T15:17:44.553Z,63.90
2022-08-17T15:20:27.839Z,63.80
2022-08-17T15:22:58.747Z,63.00
2022-08-17T15:25:29.381Z,63.00
2022-08-17T15:30:26.577Z,63.50
2022-08-17T15:32:57.276Z,63.00
2022-08-17T15:35:29.387Z,63.20
2022-08-17T15:37:58.351Z,63.10
2022-08-17T15:40:25.449Z,63.30
2022-08-17T15:45:24.766Z,63.60
2022-08-17T15:47:52.662Z,63.50
2022-08-17T15:52:55.529Z,63.70
2022-08-17T15:55:25.412Z,63.80
2022-08-17T16:05:37.738Z,63.80
2022-08-17T16:15:51.064Z,63.90
2022-08-17T16:18:28.272Z,64.00
2022-08-17T16:28:35.750Z,63.90
2022-08-17T16:31:05.823Z,63.90
2022-08-17T16:33:37.849Z,64.60
2022-08-17T16:36:09.929Z,63.90
2022-08-17T16:41:06.130Z,64.50
2022-08-17T16:43:34.853Z,64.30
2022-08-17T16:48:31.066Z,64.00
2022-08-17T16:51:03.789Z,64.10
2022-08-17T17:03:30.795Z,64.10
2022-08-17T17:06:25.485Z,64.10
2022-08-17T17:09:02.274Z,63.90
2022-08-17T17:11:45.597Z,63.70
2022-08-17T17:14:21.074Z,64.50
2022-08-17T17:16:59.569Z,63.60
2022-08-17T17:19:56.851Z,63.50
2022-08-17T17:22:30.067Z,64.30
2022-08-17T17:25:27.548Z,63.50
2022-08-17T17:28:14.865Z,64.60
2022-08-17T17:31:08.193Z,63.50
2022-08-17T17:33:53.270Z,64.30
2022-08-17T17:36:50.703Z,64.30
2022-08-17T17:39:43.746Z,64.40
2022-08-17T17:42:28.239Z,64.70
2022-08-17T17:45:00.144Z,64.60
2022-08-17T17:47:29.575Z,64.90
2022-08-17T17:49:56.670Z,63.80
2022-08-17T17:53:02.034Z,63.90
2022-08-17T17:55:56.122Z,64.00
2022-08-17T17:58:38.676Z,64.00
2022-08-17T18:01:27.357Z,64.00
2022-08-17T18:09:23.658Z,64.10
2022-08-17T18:16:55.349Z,64.20
2022-08-17T18:19:25.600Z,64.20
2022-08-17T18:22:02.149Z,64.30
2022-08-17T18:24:36.069Z,64.40
2022-08-17T18:27:27.190Z,64.40
2022-08-17T18:29:57.878Z,64.40
2022-08-17T18:32:34.961Z,64.40
2022-08-17T18:35:08.758Z,64.40
2022-08-17T18:37:41.231Z,64.50
2022-08-17T18:43:21.989Z,64.60
2022-08-17T18:45:53.648Z,64.60
2022-08-17T18:48:52.687Z,64.60
2022-08-17T18:51:40.990Z,64.60
2022-08-17T18:54:22.858Z,64.60
2022-08-17T18:59:31.337Z,64.70
2022-08-17T19:02:22.106Z,64.50
2022-08-17T19:05:24.853Z,64.70
2022-08-17T19:07:53.252Z,64.70
2022-08-17T19:10:46.330Z,64.70
2022-08-17T19:13:24.267Z,64.70
2022-08-17T19:19:04.579Z,64.70
2022-08-17T19:21:37.136Z,64.70
2022-08-17T19:24:19.604Z,64.70
2022-08-17T19:27:07.941Z,64.70
2022-08-17T19:30:06.970Z,64.70
2022-08-17T19:35:07.361Z,64.60
2022-08-17T19:38:23.410Z,64.70
2022-08-17T19:41:13.925Z,64.70
2022-08-17T19:43:55.504Z,64.70
2022-08-17T19:46:50.657Z,64.70
2022-08-17T19:49:46.614Z,64.60
2022-08-17T19:52:39.549Z,64.60
2022-08-17T19:55:20.789Z,64.50
2022-08-17T20:00:19.905Z,64.50
2022-08-17T20:05:23.977Z,64.40
2022-08-17T20:13:15.030Z,64.30
2022-08-17T20:18:43.985Z,64.30
2022-08-17T20:21:41.411Z,64.20
2022-08-17T20:24:25.065Z,64.20
2022-08-17T20:27:08.892Z,64.20
2022-08-17T20:29:55.268Z,64.10
2022-08-17T20:32:31.069Z,64.10
2022-08-17T20:35:22.477Z,64.00
2022-08-17T20:37:57.368Z,64.70
2022-08-17T20:40:28.475Z,64.00
2022-08-17T20:48:35.659Z,63.70
2022-08-17T20:50:55.966Z,63.70
2022-08-17T20:53:47.764Z,63.70
2022-08-17T20:56:43.248Z,64.30
2022-08-17T20:59:31.570Z,63.50
2022-08-17T21:02:18.100Z,63.40
2022-08-17T21:07:51.959Z,63.40
2022-08-17T21:10:32.343Z,63.30
2022-08-17T21:13:15.591Z,63.20
2022-08-17T21:15:55.417Z,63.30
2022-08-17T21:18:49.434Z,63.10
2022-08-17T21:21:19.310Z,64.70
2022-08-17T21:24:19.280Z,63.00
2022-08-17T21:26:55.524Z,63.10
2022-08-17T21:29:31.912Z,63.70
2022-08-17T21:32:02.658Z,62.90
2022-08-17T21:37:20.179Z,62.80
2022-08-17T21:39:59.035Z,62.80
2022-08-17T21:42:34.415Z,62.70
2022-08-17T21:45:11.306Z,62.60
2022-08-17T21:50:25.061Z,62.50
2022-08-17T21:52:55.996Z,62.50
2022-08-17T21:55:29.617Z,62.50
2022-08-17T21:58:14.147Z,62.40
2022-08-17T22:03:24.281Z,62.40
2022-08-17T22:08:22.541Z,62.30
2022-08-17T22:10:59.252Z,62.30
2022-08-17T22:16:28.658Z,62.10
2022-08-17T22:18:58.602Z,62.10
2022-08-17T22:21:27.282Z,62.70
2022-08-17T22:24:15.405Z,62.10
2022-08-17T22:27:05.821Z,62.80
2022-08-17T22:29:59.247Z,62.00
2022-08-17T22:32:35.039Z,61.90
2022-08-17T22:35:26.871Z,61.90
2022-08-17T22:37:53.977Z,61.90
2022-08-17T22:40:30.544Z,61.90
2022-08-17T22:43:00.605Z,62.10
2022-08-17T22:45:30.385Z,61.80
2022-08-17T22:48:00.541Z,61.80
2022-08-17T22:50:30.373Z,61.80
2022-08-17T22:53:20.654Z,61.80
2022-08-17T22:56:10.910Z,61.80
2022-08-17T22:59:18.067Z,61.80
2022-08-17T23:02:11.665Z,61.70
2022-08-17T23:04:47.728Z,61.70
2022-08-17T23:12:17.734Z,61.70
2022-08-17T23:22:10.835Z,61.70
2022-08-17T23:24:50.386Z,61.50
2022-08-17T23:27:19.850Z,61.60
2022-08-17T23:29:49.515Z,61.50
2022-08-17T23:32:18.436Z,61.70
2022-08-17T23:34:47.720Z,61.50
2022-08-17T23:37:17.573Z,61.50
2022-08-17T23:42:16.309Z,61.40
2022-08-17T23:47:11.421Z,61.40
2022-08-17T23:49:39.114Z,61.30
2022-08-17T23:52:09.893Z,61.40
2022-08-17T23:54:46.561Z,61.30
2022-08-17T23:57:20.242Z,61.40
